EDDR/SCN METAR and TAF weather

Enter ICAO airport designator
Station Type Date Time Source
EDDR METAR 2019/12/11 17:20 UTC NOAA

EDDR 111720Z 21009KT 8000 -SNRA BKN004 01/01 Q1007 BECMG BKN007


Station Type Date Time Source
EDDR Decoded METAR 2019/12/11 17:20 UTC NOAA

Saarbruecken / Ensheim, Germany (EDDR) 49-13N 007-07E 320M
Dec 11, 2019 - 12:20 PM EST / 2019.12.11 1720 UTC
Wind: from the SSW (210 degrees) at 10 MPH (9 KT):0
Visibility: 4 mile(s):0
Sky conditions: mostly cloudy
Weather: light snow, rain
Temperature: 33 F (1 C)
Windchill: 24 F (-4 C):1
Dew Point: 33 F (1 C)
Relative Humidity: 100%
Pressure (altimeter): 29.74 in. Hg (1007 hPa)
ob: EDDR 111720Z 21009KT 8000 -SNRA BKN004 01/01 Q1007 BECMG BKN007
cycle: 17

Station Type Date Time Source
EDDR TAF 2019/12/11 18:27 UTC NOAA

TAF EDDR 111700Z 1118/1218 22010KT 9999 SCT005 OVC012
TEMPO 1118/1205 1500 -DZ BKN003 PROB30
TEMPO 1205/1212 2500 SHRASN BKN008 BKN013TCU
BECMG 1212/1214 SCT025

Example: see airport list